createdAt,value
2024-05-09T00:00:10.455Z,68.93
2024-05-09T00:01:07.967Z,68.32
2024-05-09T00:02:07.939Z,68.12
2024-05-09T00:03:09.023Z,68.12
2024-05-09T00:04:07.957Z,68.35
2024-05-09T00:05:07.945Z,69.78
2024-05-09T00:06:08.338Z,69.57
2024-05-09T00:07:07.872Z,68.86
2024-05-09T00:08:07.837Z,69.06
2024-05-09T00:09:07.849Z,68.96
2024-05-09T00:10:11.807Z,68.76
2024-05-09T00:11:08.925Z,69.06
2024-05-09T00:12:08.042Z,69.60
2024-05-09T00:13:08.187Z,69.47
2024-05-09T00:14:07.823Z,69.06
2024-05-09T00:15:07.755Z,68.89
2024-05-09T00:16:07.734Z,68.96
2024-05-09T00:17:07.840Z,68.89
2024-05-09T00:18:08.350Z,68.99
2024-05-09T00:19:07.867Z,69.40
2024-05-09T00:20:14.344Z,69.40
2024-05-09T00:21:08.830Z,69.40
2024-05-09T00:22:07.707Z,69.43
2024-05-09T00:23:08.133Z,69.74
2024-05-09T00:24:07.643Z,69.94
2024-05-09T00:25:07.626Z,70.18
2024-05-09T00:26:07.709Z,69.94
2024-05-09T00:27:08.466Z,70.04
2024-05-09T00:28:07.660Z,69.84
2024-05-09T00:29:07.711Z,69.64
2024-05-09T00:30:07.578Z,70.14
2024-05-09T00:31:07.577Z,69.97
2024-05-09T00:32:07.669Z,70.68
2024-05-09T00:33:08.976Z,71.09
2024-05-09T00:34:07.654Z,70.58
2024-05-09T00:35:07.678Z,70.82
2024-05-09T00:36:07.511Z,71.94
2024-05-09T00:37:07.486Z,72.25
2024-05-09T00:38:07.582Z,72.34
2024-05-09T00:39:07.475Z,72.86
2024-05-09T00:40:11.962Z,72.04
2024-05-09T00:41:08.632Z,72.34
2024-05-09T00:42:07.471Z,71.60
2024-05-09T00:43:07.436Z,71.70
2024-05-09T00:44:07.445Z,71.02
2024-05-09T00:45:07.528Z,72.34
2024-05-09T00:46:07.407Z,72.01
2024-05-09T00:47:07.778Z,71.19
2024-05-09T00:48:09.006Z,70.62
2024-05-09T00:49:07.451Z,71.73
2024-05-09T00:50:12.643Z,71.87
2024-05-09T00:51:08.428Z,72.86
2024-05-09T00:52:07.344Z,72.45
2024-05-09T00:53:07.454Z,71.80
2024-05-09T00:54:07.285Z,71.30
2024-05-09T00:55:07.297Z,71.02
2024-05-09T00:56:07.408Z,72.04
2024-05-09T00:57:07.262Z,71.73
2024-05-09T00:58:07.262Z,72.14
2024-05-09T00:59:07.277Z,71.94
2024-05-09T01:00:12.178Z,71.43
2024-05-09T01:01:08.294Z,71.02
2024-05-09T01:02:07.271Z,71.47
2024-05-09T01:03:07.788Z,71.56
2024-05-09T01:04:07.358Z,71.77
2024-05-09T01:05:07.254Z,72.11
2024-05-09T01:06:07.249Z,72.28
2024-05-09T01:07:07.268Z,73.02
2024-05-09T01:08:07.453Z,72.58
2024-05-09T01:09:07.155Z,72.72
2024-05-09T01:10:11.680Z,72.62
2024-05-09T01:11:08.277Z,73.43
2024-05-09T01:12:07.210Z,72.72
2024-05-09T01:13:07.825Z,72.62
2024-05-09T01:14:07.153Z,72.21
2024-05-09T01:15:07.090Z,72.21
2024-05-09T01:16:07.086Z,72.58
2024-05-09T01:17:07.121Z,71.73
2024-05-09T01:18:07.308Z,71.33
2024-05-09T01:19:07.131Z,71.23
2024-05-09T01:20:10.653Z,72.21
2024-05-09T01:21:08.063Z,72.58
2024-05-09T01:22:06.993Z,72.28
2024-05-09T01:23:07.779Z,71.67
2024-05-09T01:24:07.861Z,71.67
2024-05-09T01:25:06.950Z,71.56
2024-05-09T01:26:06.982Z,71.56
2024-05-09T01:27:07.058Z,72.52
2024-05-09T01:28:06.923Z,72.11
2024-05-09T01:29:06.960Z,71.97
2024-05-09T01:30:09.450Z,72.01
2024-05-09T01:31:07.941Z,72.11
2024-05-09T01:32:06.930Z,72.86
2024-05-09T01:33:09.047Z,72.86
2024-05-09T01:34:06.885Z,73.16
2024-05-09T01:35:06.859Z,73.36
2024-05-09T01:36:06.860Z,73.06
2024-05-09T01:37:06.831Z,73.02
2024-05-09T01:38:07.033Z,72.82
2024-05-09T01:39:06.866Z,72.41
2024-05-09T01:40:09.758Z,72.21
2024-05-09T01:41:07.831Z,72.52
2024-05-09T01:42:06.792Z,72.21
2024-05-09T01:43:07.025Z,72.52
2024-05-09T01:44:06.777Z,72.65
2024-05-09T01:45:06.740Z,73.26
2024-05-09T01:46:06.778Z,73.71
2024-05-09T01:47:06.737Z,74.28
2024-05-09T01:48:07.030Z,73.47
2024-05-09T01:49:06.943Z,73.97
2024-05-09T01:50:09.133Z,73.54
2024-05-09T01:51:06.750Z,73.47
2024-05-09T01:52:06.660Z,73.57
2024-05-09T01:53:06.739Z,73.54
2024-05-09T01:54:06.665Z,72.31
2024-05-09T01:55:06.998Z,72.17
2024-05-09T01:56:06.715Z,72.45
2024-05-09T01:57:06.645Z,72.92
2024-05-09T01:58:06.580Z,73.40
2024-05-09T01:59:06.657Z,74.01
2024-05-09T02:00:07.926Z,73.77
2024-05-09T02:01:06.606Z,73.40
2024-05-09T02:02:06.679Z,73.71
2024-05-09T02:03:06.866Z,74.01
2024-05-09T02:04:06.985Z,73.57
2024-05-09T02:05:06.731Z,72.55
2024-05-09T02:06:06.865Z,73.36
2024-05-09T02:07:06.552Z,74.01
2024-05-09T02:08:06.523Z,74.01
2024-05-09T02:09:06.484Z,74.21
2024-05-09T02:10:13.670Z,74.11
2024-05-09T02:11:07.492Z,74.45
2024-05-09T02:12:06.633Z,74.66
2024-05-09T02:13:06.424Z,75.07
2024-05-09T02:14:06.459Z,75.68
2024-05-09T02:15:06.397Z,75.23
2024-05-09T02:16:06.394Z,74.11
2024-05-09T02:17:06.436Z,73.91
2024-05-09T02:18:06.562Z,73.40
2024-05-09T02:19:06.541Z,73.71
2024-05-09T02:20:06.584Z,74.21
2024-05-09T02:21:06.468Z,73.81
2024-05-09T02:22:06.320Z,74.01
2024-05-09T02:23:06.941Z,73.91
2024-05-09T02:24:06.306Z,73.91
2024-05-09T02:25:06.270Z,73.91
2024-05-09T02:26:06.360Z,74.35
2024-05-09T02:27:06.270Z,74.21
2024-05-09T02:28:06.245Z,73.81
2024-05-09T02:29:06.260Z,73.43
2024-05-09T02:30:15.125Z,74.38
2024-05-09T02:31:07.257Z,75.16
2024-05-09T02:32:06.259Z,74.66
2024-05-09T02:33:06.379Z,74.96
2024-05-09T02:34:06.265Z,74.73
2024-05-09T02:35:06.231Z,73.67
2024-05-09T02:36:06.165Z,73.10
2024-05-09T02:37:06.209Z,73.40
2024-05-09T02:38:06.240Z,73.19
2024-05-09T02:39:06.114Z,72.89
2024-05-09T02:40:09.112Z,72.38
2024-05-09T02:41:07.292Z,73.94
2024-05-09T02:42:06.130Z,74.45
2024-05-09T02:43:06.300Z,73.94
2024-05-09T02:44:06.101Z,74.49
2024-05-09T02:45:06.100Z,74.35
2024-05-09T02:46:06.069Z,73.54
2024-05-09T02:47:06.127Z,74.25
2024-05-09T02:48:06.311Z,73.74
2024-05-09T02:49:06.268Z,73.64
2024-05-09T02:50:07.876Z,73.74
2024-05-09T02:51:06.082Z,73.33
2024-05-09T02:52:05.969Z,73.13
2024-05-09T02:53:06.267Z,73.33
2024-05-09T02:54:05.962Z,74.18
2024-05-09T02:55:05.951Z,75.00
2024-05-09T02:56:05.989Z,75.41
2024-05-09T02:57:06.134Z,74.66
2024-05-09T02:58:05.906Z,74.15
2024-05-09T02:59:05.937Z,73.54
2024-05-09T03:00:07.624Z,74.15
2024-05-09T03:01:05.957Z,74.55
2024-05-09T03:02:06.070Z,74.35
2024-05-09T03:03:06.485Z,74.38
2024-05-09T03:04:06.096Z,74.69
2024-05-09T03:05:06.015Z,74.35
2024-05-09T03:06:05.843Z,74.15
2024-05-09T03:07:05.920Z,73.43
2024-05-09T03:08:05.872Z,73.03
2024-05-09T03:09:05.795Z,73.03
2024-05-09T03:10:11.896Z,73.74
2024-05-09T03:11:06.904Z,73.98
2024-05-09T03:12:05.928Z,74.29
2024-05-09T03:13:05.783Z,74.25
2024-05-09T03:14:05.765Z,74.18
2024-05-09T03:15:05.709Z,74.18
2024-05-09T03:16:05.710Z,74.90
2024-05-09T03:17:05.746Z,74.18
2024-05-09T03:18:06.065Z,73.94
2024-05-09T03:19:05.777Z,74.29
2024-05-09T03:20:09.132Z,74.38
2024-05-09T03:21:06.743Z,74.29
2024-05-09T03:22:05.621Z,73.98
2024-05-09T03:23:06.210Z,74.42
2024-05-09T03:24:05.621Z,74.79
2024-05-09T03:25:05.597Z,74.38
2024-05-09T03:26:05.609Z,73.88
2024-05-09T03:27:05.575Z,74.76
2024-05-09T03:28:05.547Z,75.75
2024-05-09T03:29:05.587Z,75.34
2024-05-09T03:30:07.451Z,75.13
2024-05-09T03:31:06.495Z,75.89
2024-05-09T03:32:05.669Z,75.68
2024-05-09T03:33:06.317Z,76.43
2024-05-09T03:34:05.598Z,76.06
2024-05-09T03:35:05.584Z,75.68
2024-05-09T03:36:08.239Z,75.44
2024-05-09T03:37:05.530Z,76.09
2024-05-09T03:38:05.493Z,75.13
2024-05-09T03:39:05.424Z,75.89
2024-05-09T03:40:09.306Z,75.85
2024-05-09T03:41:06.481Z,75.61
2024-05-09T03:42:05.396Z,74.73
2024-05-09T03:43:05.378Z,75.34
2024-05-09T03:44:05.422Z,75.10
2024-05-09T03:45:05.378Z,74.69
2024-05-09T03:46:05.506Z,74.90
2024-05-09T03:47:05.366Z,74.29
2024-05-09T03:48:05.561Z,74.18
2024-05-09T03:49:05.512Z,74.83
2024-05-09T03:50:05.921Z,75.44
2024-05-09T03:51:05.445Z,75.34
2024-05-09T03:52:05.316Z,75.20
2024-05-09T03:53:05.375Z,74.83
2024-05-09T03:54:05.267Z,74.29
2024-05-09T03:55:05.288Z,74.42
2024-05-09T03:56:05.284Z,74.69
2024-05-09T03:57:05.238Z,74.18
2024-05-09T03:58:05.425Z,74.52
2024-05-09T03:59:05.266Z,74.93
2024-05-09T04:00:07.469Z,74.83
2024-05-09T04:01:05.228Z,74.73
2024-05-09T04:02:05.238Z,75.13
2024-05-09T04:03:06.104Z,74.93
2024-05-09T04:04:05.220Z,75.10
2024-05-09T04:05:05.165Z,74.79
2024-05-09T04:06:05.140Z,74.93
2024-05-09T04:07:05.122Z,74.79
2024-05-09T04:08:05.204Z,74.59
2024-05-09T04:09:05.331Z,74.59
2024-05-09T04:10:06.857Z,74.59
2024-05-09T04:11:05.252Z,74.05
2024-05-09T04:12:05.118Z,73.67
2024-05-09T04:13:05.081Z,74.38
2024-05-09T04:14:05.097Z,75.00
2024-05-09T04:15:05.069Z,74.59
2024-05-09T04:16:05.023Z,74.90
2024-05-09T04:17:05.064Z,74.52
2024-05-09T04:18:05.347Z,75.99
2024-05-09T04:19:05.059Z,75.48
2024-05-09T04:20:06.516Z,75.58
2024-05-09T04:21:05.214Z,75.78
2024-05-09T04:22:04.946Z,76.09
2024-05-09T04:23:05.050Z,76.40
2024-05-09T04:24:04.930Z,76.06
2024-05-09T04:25:04.899Z,75.34
2024-05-09T04:26:05.062Z,74.90
2024-05-09T04:27:04.927Z,74.73
2024-05-09T04:28:04.957Z,75.31
2024-05-09T04:29:04.879Z,75.31
2024-05-09T04:30:07.855Z,75.17
2024-05-09T04:31:05.824Z,75.65
2024-05-09T04:32:04.878Z,75.44
2024-05-09T04:33:04.982Z,75.65
2024-05-09T04:34:05.003Z,75.20
2024-05-09T04:35:04.781Z,74.90
2024-05-09T04:36:04.776Z,74.69
2024-05-09T04:37:04.760Z,75.65
2024-05-09T04:38:04.992Z,74.49
2024-05-09T04:39:04.733Z,74.29
2024-05-09T04:40:07.029Z,74.01
2024-05-09T04:41:04.747Z,73.10
2024-05-09T04:42:04.735Z,72.79
2024-05-09T04:43:04.728Z,72.89
2024-05-09T04:44:04.805Z,73.30
2024-05-09T04:45:04.682Z,73.03
2024-05-09T04:46:04.708Z,74.08
2024-05-09T04:47:04.744Z,74.90
2024-05-09T04:48:04.918Z,75.00
2024-05-09T04:49:04.708Z,74.01
2024-05-09T04:50:05.633Z,73.71
2024-05-09T04:51:04.724Z,73.60
2024-05-09T04:52:04.598Z,73.30
2024-05-09T04:53:05.189Z,74.05
2024-05-09T04:54:05.536Z,73.50
2024-05-09T04:55:13.309Z,73.06
2024-05-09T04:56:04.657Z,72.65
2024-05-09T04:57:04.577Z,73.64
2024-05-09T04:58:04.562Z,74.79
2024-05-09T04:59:04.610Z,74.76
2024-05-09T05:00:09.328Z,74.76
2024-05-09T05:01:05.601Z,74.32
2024-05-09T05:02:04.681Z,74.01
2024-05-09T05:03:04.690Z,73.71
2024-05-09T05:04:04.527Z,75.00
2024-05-09T05:05:04.570Z,75.98
2024-05-09T05:06:04.528Z,75.16
2024-05-09T05:07:04.458Z,74.11
2024-05-09T05:08:04.612Z,74.49
2024-05-09T05:09:04.414Z,73.57
2024-05-09T05:10:05.865Z,73.67
2024-05-09T05:11:04.582Z,73.67
2024-05-09T05:12:04.510Z,73.97
2024-05-09T05:13:04.393Z,74.32
2024-05-09T05:14:04.537Z,74.18
2024-05-09T05:15:04.379Z,74.04
2024-05-09T05:16:04.337Z,73.40
2024-05-09T05:17:04.401Z,73.64
2024-05-09T05:18:04.492Z,73.33
2024-05-09T05:19:05.914Z,73.81
2024-05-09T05:20:05.764Z,74.15
2024-05-09T05:21:04.353Z,73.64
2024-05-09T05:22:04.303Z,73.84
2024-05-09T05:23:04.344Z,73.13
2024-05-09T05:24:04.247Z,73.84
2024-05-09T05:25:04.274Z,72.78
2024-05-09T05:26:04.330Z,73.10
2024-05-09T05:27:04.232Z,72.65
2024-05-09T05:28:04.275Z,72.41
2024-05-09T05:29:04.289Z,71.91
2024-05-09T05:30:07.350Z,71.94
2024-05-09T05:31:05.209Z,72.55
2024-05-09T05:32:04.276Z,72.31
2024-05-09T05:33:04.241Z,72.11
2024-05-09T05:34:04.331Z,71.91
2024-05-09T05:35:04.954Z,72.01
2024-05-09T05:36:04.419Z,72.52
2024-05-09T05:37:04.104Z,72.11
2024-05-09T05:38:04.140Z,71.73
2024-05-09T05:39:04.068Z,71.60
2024-05-09T05:40:04.355Z,72.31
2024-05-09T05:41:04.745Z,72.08
2024-05-09T05:42:04.119Z,71.53
2024-05-09T05:43:04.036Z,71.12
2024-05-09T05:44:04.160Z,70.79
2024-05-09T05:45:06.125Z,69.78
2024-05-09T05:46:03.999Z,69.74
2024-05-09T05:47:04.043Z,69.87
2024-05-09T05:48:05.490Z,69.98
2024-05-09T05:49:04.118Z,69.23
2024-05-09T05:50:09.352Z,69.67
2024-05-09T05:51:05.012Z,69.10
2024-05-09T05:52:03.928Z,69.17
2024-05-09T05:53:04.002Z,68.76
2024-05-09T05:54:04.049Z,68.83
2024-05-09T05:55:03.956Z,69.84
2024-05-09T05:56:03.993Z,69.37
2024-05-09T05:57:03.879Z,68.90
2024-05-09T05:58:03.933Z,68.23
2024-05-09T05:59:03.934Z,67.92
2024-05-09T06:00:07.085Z,68.66
2024-05-09T06:01:05.563Z,68.66
2024-05-09T06:02:03.884Z,68.46
2024-05-09T06:03:03.972Z,68.93
2024-05-09T06:04:03.882Z,68.06
2024-05-09T06:05:04.094Z,67.48
2024-05-09T06:06:04.022Z,67.99
2024-05-09T06:07:03.766Z,68.09
2024-05-09T06:08:03.782Z,68.26
2024-05-09T06:09:03.752Z,67.82
2024-05-09T06:10:05.333Z,66.91
2024-05-09T06:11:03.889Z,67.48
2024-05-09T06:12:03.932Z,68.43
2024-05-09T06:13:03.719Z,70.42
2024-05-09T06:14:03.745Z,69.95
2024-05-09T06:15:04.378Z,69.54
2024-05-09T06:16:03.660Z,69.34
2024-05-09T06:17:03.676Z,70.05
2024-05-09T06:18:03.836Z,70.59
2024-05-09T06:19:03.763Z,70.48
2024-05-09T06:20:04.536Z,69.92
2024-05-09T06:21:03.704Z,68.97
2024-05-09T06:22:03.663Z,68.43
2024-05-09T06:23:03.675Z,67.46
2024-05-09T06:24:06.605Z,66.85
2024-05-09T06:25:03.539Z,66.04
2024-05-09T06:26:03.612Z,66.58
2024-05-09T06:27:03.517Z,66.89
2024-05-09T06:28:03.633Z,65.27
2024-05-09T06:29:03.520Z,65.04
2024-05-09T06:30:03.874Z,64.19
2024-05-09T06:31:03.499Z,64.59
2024-05-09T06:32:03.608Z,64.87
2024-05-09T06:33:03.712Z,63.62
2024-05-09T06:34:04.923Z,64.65
2024-05-09T06:35:03.537Z,66.64
2024-05-09T06:36:03.427Z,66.81
2024-05-09T06:37:03.435Z,65.73
2024-05-09T06:38:03.532Z,66.10
2024-05-09T06:39:03.396Z,66.71
2024-05-09T06:40:05.481Z,66.50
2024-05-09T06:41:03.410Z,67.96
2024-05-09T06:42:03.348Z,67.89
2024-05-09T06:43:03.333Z,66.28
2024-05-09T06:44:03.361Z,64.40
2024-05-09T06:45:03.365Z,63.39
2024-05-09T06:46:03.299Z,65.23
2024-05-09T06:47:03.353Z,66.27
2024-05-09T06:48:03.562Z,67.42
2024-05-09T06:49:03.460Z,67.02
2024-05-09T06:50:04.879Z,65.78
2024-05-09T06:51:03.301Z,65.43
2024-05-09T06:52:03.256Z,66.24
2024-05-09T06:53:03.265Z,65.81
2024-05-09T06:54:03.233Z,65.81
2024-05-09T06:55:03.246Z,66.44
2024-05-09T06:56:03.242Z,67.19
2024-05-09T06:57:03.241Z,66.82
2024-05-09T06:58:03.189Z,64.78
2024-05-09T06:59:03.298Z,63.76
2024-05-09T07:00:03.842Z,63.64
2024-05-09T07:01:03.271Z,63.73
2024-05-09T07:02:03.140Z,65.37
2024-05-09T07:03:05.796Z,65.84
2024-05-09T07:04:03.181Z,64.47
2024-05-09T07:05:03.336Z,64.70
2024-05-09T07:06:03.320Z,64.44
2024-05-09T07:07:03.098Z,63.20
2024-05-09T07:08:03.391Z,63.67
2024-05-09T07:09:03.039Z,64.24
2024-05-09T07:10:03.938Z,64.70
2024-05-09T07:11:03.222Z,65.51
2024-05-09T07:12:03.149Z,64.98
2024-05-09T07:13:03.056Z,64.84
2024-05-09T07:14:03.149Z,64.07
2024-05-09T07:15:03.095Z,65.35
2024-05-09T07:16:03.010Z,63.98
2024-05-09T07:17:03.012Z,62.24
2024-05-09T07:18:03.146Z,63.81
2024-05-09T07:19:03.203Z,64.01
2024-05-09T07:20:03.100Z,63.78
2024-05-09T07:21:03.026Z,62.90
2024-05-09T07:22:02.953Z,64.10
2024-05-09T07:23:03.187Z,64.37
2024-05-09T07:24:02.953Z,63.64
2024-05-09T07:25:02.967Z,62.87
2024-05-09T07:26:02.930Z,62.10
2024-05-09T07:27:02.937Z,61.57
2024-05-09T07:28:02.859Z,60.71
2024-05-09T07:29:02.917Z,58.50
2024-05-09T07:30:05.424Z,58.73
2024-05-09T07:31:03.113Z,60.06
2024-05-09T07:32:02.996Z,60.03
2024-05-09T07:33:03.669Z,60.08
2024-05-09T07:34:02.977Z,58.93
2024-05-09T07:35:02.853Z,59.94
2024-05-09T07:36:02.908Z,60.47
2024-05-09T07:37:02.979Z,61.73
2024-05-09T07:38:02.920Z,61.24
2024-05-09T07:39:02.826Z,60.36
2024-05-09T07:40:04.244Z,61.20
2024-05-09T07:41:02.970Z,62.16
2024-05-09T07:42:02.698Z,62.94
2024-05-09T07:43:02.811Z,61.57
2024-05-09T07:44:02.775Z,60.97
2024-05-09T07:45:21.245Z,61.65
2024-05-09T07:47:03.851Z,60.68
2024-05-09T07:48:14.335Z,59.92
2024-05-09T07:50:53.218Z,60.71
2024-05-09T07:51:54.802Z,60.53
2024-05-09T07:53:26.769Z,60.64
2024-05-09T07:53:36.191Z,61.17
2024-05-09T07:54:04.191Z,60.58
2024-05-09T07:55:02.796Z,60.13
2024-05-09T07:56:02.831Z,60.81
2024-05-09T07:57:02.576Z,60.81
2024-05-09T07:58:02.599Z,60.68
2024-05-09T07:59:02.472Z,60.22
2024-05-09T08:00:02.561Z,59.42
2024-05-09T08:01:02.644Z,58.39
2024-05-09T08:02:02.680Z,59.94
2024-05-09T08:03:02.484Z,57.26
2024-05-09T08:04:02.541Z,58.29
2024-05-09T08:05:02.503Z,58.26
2024-05-09T08:06:02.584Z,58.06
2024-05-09T08:07:02.458Z,57.57
2024-05-09T08:08:02.374Z,56.70
2024-05-09T08:09:07.679Z,58.31
2024-05-09T08:10:04.263Z,58.51
2024-05-09T08:11:02.370Z,57.63
2024-05-09T08:12:02.797Z,57.15
2024-05-09T08:13:02.528Z,57.23
2024-05-09T08:14:02.295Z,55.67
2024-05-09T08:15:02.551Z,55.24
2024-05-09T08:16:02.373Z,55.17
2024-05-09T08:17:02.294Z,56.88
2024-05-09T08:18:02.400Z,57.68
2024-05-09T08:19:03.063Z,58.31
2024-05-09T08:20:05.419Z,59.01
2024-05-09T08:21:02.219Z,58.26
2024-05-09T08:22:02.250Z,56.83
2024-05-09T08:23:02.358Z,56.50
2024-05-09T08:24:02.184Z,55.52
2024-05-09T08:25:02.216Z,55.40
2024-05-09T08:26:03.082Z,55.97
2024-05-09T08:27:02.138Z,53.94
2024-05-09T08:28:02.939Z,54.47
2024-05-09T08:29:02.258Z,54.60
2024-05-09T08:30:02.120Z,54.14
2024-05-09T08:31:05.155Z,53.39
2024-05-09T08:32:02.172Z,54.67
2024-05-09T08:33:02.167Z,55.37
2024-05-09T08:34:02.263Z,55.24
2024-05-09T08:35:02.171Z,54.39
2024-05-09T08:36:02.056Z,53.77
2024-05-09T08:37:10.091Z,53.44
2024-05-09T08:38:03.634Z,53.02
2024-05-09T08:39:01.986Z,52.94
2024-05-09T08:40:02.058Z,52.55
2024-05-09T08:41:01.983Z,54.14
2024-05-09T08:42:02.076Z,55.63
2024-05-09T08:43:02.038Z,55.70
2024-05-09T08:44:01.951Z,54.44
2024-05-09T08:45:02.026Z,53.22
2024-05-09T08:46:02.060Z,53.44
2024-05-09T08:47:02.039Z,51.67
2024-05-09T08:48:01.980Z,50.92
2024-05-09T08:49:02.160Z,50.77
2024-05-09T08:50:02.011Z,50.47
2024-05-09T08:51:01.861Z,50.24
2024-05-09T08:52:02.098Z,49.74
2024-05-09T08:53:01.845Z,47.71
2024-05-09T08:54:01.879Z,47.08
2024-05-09T08:55:01.920Z,46.78
2024-05-09T08:56:01.817Z,45.84
2024-05-09T08:57:01.833Z,45.89
2024-05-09T08:58:01.868Z,47.56
2024-05-09T08:59:01.797Z,48.41
2024-05-09T09:00:01.842Z,48.58
2024-05-09T09:01:01.982Z,46.20
2024-05-09T09:02:01.816Z,47.29
2024-05-09T09:03:01.800Z,46.79
2024-05-09T09:04:01.939Z,44.74
2024-05-09T09:05:01.837Z,45.00
2024-05-09T09:06:01.807Z,44.05
2024-05-09T09:07:03.519Z,46.20
2024-05-09T09:08:02.766Z,46.91
2024-05-09T09:09:01.718Z,47.08
2024-05-09T09:10:01.821Z,46.96
2024-05-09T09:11:01.681Z,46.06
2024-05-09T09:12:01.734Z,46.38
2024-05-09T09:13:01.720Z,46.64
2024-05-09T09:14:01.603Z,45.20
2024-05-09T09:15:02.336Z,43.49
2024-05-09T09:16:01.652Z,42.37
2024-05-09T09:17:01.571Z,42.03
2024-05-09T09:18:01.817Z,41.93
2024-05-09T09:19:01.713Z,42.83
2024-05-09T09:20:01.733Z,43.15
2024-05-09T09:21:01.517Z,42.13
2024-05-09T09:22:01.602Z,42.71
2024-05-09T09:23:01.553Z,41.91
2024-05-09T09:24:01.533Z,42.63
2024-05-09T09:25:01.591Z,41.71
2024-05-09T09:26:02.645Z,43.11
2024-05-09T09:27:01.490Z,46.77
2024-05-09T09:28:01.509Z,45.87
2024-05-09T09:29:01.483Z,44.38
2024-05-09T09:30:01.447Z,44.46
2024-05-09T09:31:01.550Z,43.72
2024-05-09T09:32:01.405Z,44.48
2024-05-09T09:33:01.489Z,43.02
2024-05-09T09:34:01.674Z,43.86
2024-05-09T09:35:01.616Z,44.18
2024-05-09T09:36:01.437Z,44.70
2024-05-09T09:37:01.425Z,44.96
2024-05-09T09:38:02.004Z,43.52
2024-05-09T09:39:01.383Z,43.88
2024-05-09T09:40:01.336Z,42.47
2024-05-09T09:41:01.749Z,44.60
2024-05-09T09:42:01.368Z,44.98
2024-05-09T09:43:01.411Z,43.27
2024-05-09T09:44:01.259Z,43.60
2024-05-09T09:45:05.119Z,43.90
2024-05-09T09:46:01.325Z,44.08
2024-05-09T09:47:01.298Z,44.31
2024-05-09T09:48:01.350Z,45.26
2024-05-09T09:49:01.298Z,43.44
2024-05-09T09:50:01.310Z,42.65
2024-05-09T09:51:01.198Z,46.75
2024-05-09T09:52:01.274Z,43.86
2024-05-09T09:53:01.255Z,44.31
2024-05-09T09:54:01.188Z,43.46
2024-05-09T09:55:01.439Z,42.75
2024-05-09T09:56:01.169Z,43.02
2024-05-09T09:57:01.114Z,42.91
2024-05-09T09:58:01.375Z,44.10
2024-05-09T09:59:01.121Z,43.13
2024-05-09T10:00:01.136Z,41.53
2024-05-09T10:01:01.175Z,42.09
2024-05-09T10:02:01.165Z,40.48
2024-05-09T10:03:01.605Z,41.09
2024-05-09T10:04:01.194Z,42.55
2024-05-09T10:05:01.250Z,40.74
2024-05-09T10:06:01.077Z,42.58
2024-05-09T10:07:01.032Z,39.45
2024-05-09T10:08:01.018Z,40.84
2024-05-09T10:09:01.921Z,40.38
2024-05-09T10:10:01.076Z,41.63
2024-05-09T10:11:01.109Z,41.61
2024-05-09T10:12:01.065Z,42.69
2024-05-09T10:13:01.248Z,42.85
2024-05-09T10:14:00.934Z,44.17
2024-05-09T10:15:00.935Z,44.05
2024-05-09T10:16:01.100Z,43.01
2024-05-09T10:17:00.939Z,41.09
2024-05-09T10:18:00.950Z,41.38
2024-05-09T10:19:01.043Z,41.85
2024-05-09T10:20:00.929Z,41.74
2024-05-09T10:21:00.896Z,43.18
2024-05-09T10:22:00.895Z,41.08
2024-05-09T10:23:00.894Z,39.73
2024-05-09T10:24:00.813Z,38.76
2024-05-09T10:25:02.131Z,39.85
2024-05-09T10:26:00.798Z,39.53
2024-05-09T10:27:00.971Z,39.49
2024-05-09T10:28:00.807Z,41.17
2024-05-09T10:29:00.746Z,39.83
2024-05-09T10:30:00.721Z,41.34
2024-05-09T10:31:00.759Z,41.17
2024-05-09T10:32:00.720Z,42.21
2024-05-09T10:33:00.913Z,42.37
2024-05-09T10:34:00.967Z,41.87
2024-05-09T10:35:00.908Z,42.21
2024-05-09T10:36:00.676Z,43.11
2024-05-09T10:38:00.698Z,42.47
2024-05-09T10:39:00.662Z,40.82
2024-05-09T10:40:00.709Z,40.90
2024-05-09T10:41:00.630Z,42.39
2024-05-09T10:42:00.602Z,39.77
2024-05-09T10:43:03.323Z,40.28
2024-05-09T10:44:01.619Z,39.19
2024-05-09T10:45:00.616Z,38.90
2024-05-09T10:46:01.662Z,38.66
2024-05-09T10:47:00.590Z,38.90
2024-05-09T10:48:00.732Z,39.53
2024-05-09T10:49:04.248Z,40.88
2024-05-09T10:50:01.680Z,42.11
2024-05-09T10:51:00.509Z,42.15
2024-05-09T10:52:00.515Z,42.15
2024-05-09T10:53:01.798Z,43.05
2024-05-09T10:54:00.474Z,43.07
2024-05-09T10:55:01.729Z,43.13
2024-05-09T10:56:00.436Z,42.73
2024-05-09T10:57:00.408Z,41.20
2024-05-09T10:58:00.539Z,41.22
2024-05-09T10:59:00.427Z,41.50
2024-05-09T11:00:00.446Z,42.55
2024-05-09T11:01:02.361Z,40.48
2024-05-09T11:02:00.526Z,40.80
2024-05-09T11:03:00.477Z,40.52
2024-05-09T11:04:00.587Z,40.60
2024-05-09T11:05:00.424Z,42.57
2024-05-09T11:06:00.331Z,42.35
2024-05-09T11:07:02.907Z,41.50
2024-05-09T11:08:00.322Z,39.13
2024-05-09T11:09:00.279Z,39.97
2024-05-09T11:10:00.374Z,39.47
2024-05-09T11:11:00.498Z,39.57
2024-05-09T11:12:00.382Z,39.45
2024-05-09T11:13:00.340Z,39.95
2024-05-09T11:14:00.269Z,39.67
2024-05-09T11:15:00.238Z,40.58
2024-05-09T11:16:00.388Z,39.95
2024-05-09T11:17:00.199Z,40.50
2024-05-09T11:18:00.321Z,39.90
2024-05-09T11:19:00.414Z,39.79
2024-05-09T11:20:00.238Z,39.28
2024-05-09T11:21:00.147Z,39.57
2024-05-09T11:22:00.170Z,37.87
2024-05-09T11:23:00.140Z,39.43
2024-05-09T11:24:00.202Z,37.39
2024-05-09T11:25:00.258Z,39.13
2024-05-09T11:26:00.099Z,39.15
2024-05-09T11:27:00.085Z,39.97
2024-05-09T11:28:00.130Z,40.03
2024-05-09T11:29:00.046Z,40.72
2024-05-09T11:30:00.135Z,39.49
2024-05-09T11:31:00.192Z,37.09
2024-05-09T11:32:00.043Z,37.52
2024-05-09T11:33:00.168Z,38.34
2024-05-09T11:34:00.148Z,37.70
2024-05-09T11:35:00.006Z,36.77
2024-05-09T11:36:00.018Z,37.64
2024-05-09T11:37:00.045Z,36.81
2024-05-09T11:38:00.267Z,36.22
2024-05-09T11:38:59.934Z,36.77
2024-05-09T11:40:00.040Z,38.59
2024-05-09T11:40:59.943Z,38.89
2024-05-09T11:41:59.930Z,39.76
2024-05-09T11:42:59.941Z,39.95
2024-05-09T11:43:59.881Z,39.05
2024-05-09T11:44:59.860Z,38.16
2024-05-09T11:45:59.933Z,40.72
2024-05-09T11:46:59.879Z,39.79
2024-05-09T11:48:00.169Z,37.81
2024-05-09T11:48:59.954Z,37.57
2024-05-09T11:50:00.037Z,36.38
2024-05-09T11:50:59.823Z,36.88
2024-05-09T11:51:59.860Z,37.27
2024-05-09T11:52:59.798Z,37.81
2024-05-09T11:53:59.772Z,37.54
2024-05-09T11:54:59.815Z,38.02
2024-05-09T11:55:59.771Z,37.88
2024-05-09T11:56:59.734Z,37.57
2024-05-09T11:57:59.924Z,38.15
2024-05-09T11:58:59.762Z,37.27
2024-05-09T11:59:59.718Z,36.10
2024-05-09T12:00:59.770Z,38.38
2024-05-09T12:01:59.757Z,37.75
2024-05-09T12:02:59.745Z,38.32
2024-05-09T12:03:59.953Z,36.94
2024-05-09T12:04:59.783Z,36.51
2024-05-09T12:05:59.732Z,37.41
2024-05-09T12:06:59.807Z,36.88
2024-05-09T12:07:59.678Z,37.27
2024-05-09T12:08:59.578Z,38.42
2024-05-09T12:09:59.637Z,36.54
2024-05-09T12:10:59.777Z,36.60
2024-05-09T12:11:59.628Z,37.01
2024-05-09T12:12:59.598Z,37.30
2024-05-09T12:13:59.544Z,37.72
2024-05-09T12:14:59.514Z,38.90
2024-05-09T12:15:59.633Z,40.11
2024-05-09T12:16:59.516Z,39.31
2024-05-09T12:18:02.713Z,39.33
2024-05-09T12:18:59.610Z,39.25
2024-05-09T12:19:59.475Z,38.85
2024-05-09T12:20:59.445Z,39.51
2024-05-09T12:21:59.655Z,38.43
2024-05-09T12:22:59.726Z,38.65
2024-05-09T12:23:59.468Z,38.87
2024-05-09T12:24:59.480Z,38.95
2024-05-09T12:25:59.388Z,37.72
2024-05-09T12:26:59.380Z,36.00
2024-05-09T12:27:59.666Z,36.88
2024-05-09T12:28:59.409Z,36.22
2024-05-09T12:29:59.346Z,36.51
2024-05-09T12:30:59.377Z,36.10
2024-05-09T12:31:59.387Z,37.35
2024-05-09T12:32:59.375Z,36.03
2024-05-09T12:34:00.101Z,36.61
2024-05-09T12:34:59.338Z,36.59
2024-05-09T12:35:59.293Z,37.20
2024-05-09T12:36:59.319Z,36.31
2024-05-09T12:37:59.327Z,36.13
2024-05-09T12:38:59.635Z,35.52
2024-05-09T12:39:59.352Z,35.40
2024-05-09T12:40:59.319Z,35.50
2024-05-09T12:41:59.201Z,35.04
2024-05-09T12:42:59.225Z,36.94
2024-05-09T12:43:59.179Z,36.62
2024-05-09T12:44:59.203Z,37.00
2024-05-09T12:45:59.188Z,36.41
2024-05-09T12:46:59.177Z,36.01
2024-05-09T12:47:59.382Z,36.59
2024-05-09T12:48:59.347Z,36.88
2024-05-09T12:49:59.399Z,34.89
2024-05-09T12:50:59.226Z,34.83
2024-05-09T12:51:59.298Z,36.90
2024-05-09T12:52:59.129Z,36.51
2024-05-09T12:53:59.072Z,35.67
2024-05-09T12:54:59.270Z,36.96